Time;durP1;ratioP1;P1;durP2;ratioP2;P2;SDS_P1;SDS_P2;PMS_P1;PMS_P2;Temp;Humidity;BMP_temperature;BMP_pressure;BME280_temperature;BME280_humidity;BME280_pressure;Samples;Min_cycle;Max_cycle;Signal;HPM_P1;HPM_P2
2022/06/11 00:01:22;;;;;;;2.03;1.40;;;16.90;99.90;;;;;;5068561;28;20465;-75
2022/06/11 00:03:52;;;;;;;3.33;1.20;;;16.90;99.90;;;;;;5061731;28;20203;-75
2022/06/11 00:06:19;;;;;;;1.73;1.00;;;16.90;99.90;;;;;;5054075;28;20042;-75
2022/06/11 00:08:46;;;;;;;1.23;0.93;;;16.80;99.90;;;;;;5070655;28;20399;-75
2022/06/11 00:11:13;;;;;;;0.93;0.73;;;16.80;99.90;;;;;;5023523;28;20053;-75
2022/06/11 00:13:39;;;;;;;1.15;0.90;;;16.80;99.90;;;;;;5070760;28;20020;-76
2022/06/11 00:16:06;;;;;;;0.80;0.73;;;16.70;99.90;;;;;;5061324;28;20036;-75
2022/06/11 00:18:33;;;;;;;1.48;0.70;;;16.60;99.90;;;;;;5069466;28;20090;-75
2022/06/11 00:20:59;;;;;;;1.50;0.82;;;16.60;99.90;;;;;;5087158;28;20122;-75
2022/06/11 00:23:26;;;;;;;;;;;16.60;99.90;;;;;;5085386;28;20535;-75
2022/06/11 00:25:52;;;;;;;1.00;0.80;;;16.50;99.90;;;;;;5070411;28;19923;-76
2022/06/11 00:28:18;;;;;;;0.70;0.70;;;16.40;99.90;;;;;;5054609;28;20045;-75
2022/06/11 00:30:45;;;;;;;0.90;0.68;;;16.40;99.90;;;;;;5063230;28;20125;-75
2022/06/11 00:33:10;;;;;;;;;;;16.40;99.90;;;;;;5053982;28;20064;-75
2022/06/11 00:35:39;;;;;;;0.70;0.70;;;16.40;99.90;;;;;;5068124;28;19963;-76
2022/06/11 00:38:05;;;;;;;1.85;1.00;;;16.20;99.90;;;;;;5068772;28;20165;-75
2022/06/11 00:40:31;;;;;;;;;;;16.30;99.90;;;;;;5070717;28;20080;-75
2022/06/11 00:42:57;;;;;;;1.17;1.05;;;16.30;99.90;;;;;;5054271;28;20093;-75
2022/06/11 00:45:41;;;;;;;2.35;1.40;;;16.10;99.90;;;;;;5067261;28;20515;-76
2022/06/11 00:48:32;;;;;;;3.15;1.45;;;16.20;99.90;;;;;;5077962;28;20097;-75
2022/06/11 00:51:06;;;;;;;3.55;2.30;;;16.10;99.90;;;;;;5070283;28;20055;-75
2022/06/11 00:53:41;;;;;;;2.70;1.67;;;16.00;99.90;;;;;;5057918;28;20040;-75
2022/06/11 00:56:21;;;;;;;3.42;1.77;;;16.10;99.90;;;;;;5053177;28;20426;-75
2022/06/11 00:58:49;;;;;;;2.17;1.20;;;16.00;99.90;;;;;;5052511;28;20032;-75
2022/06/11 01:01:18;;;;;;;4.13;1.55;;;15.90;99.90;;;;;;5068436;28;20120;-75
2022/06/11 01:03:46;;;;;;;2.90;1.30;;;15.90;99.90;;;;;;5062302;28;20404;-75
2022/06/11 01:06:20;;;;;;;1.42;0.98;;;15.80;99.90;;;;;;5069114;28;20062;-76
2022/06/11 01:09:13;;;;;;;1.75;1.10;;;15.80;99.90;;;;;;5057406;28;20045;-75
2022/06/11 01:11:57;;;;;;;1.58;1.00;;;15.60;99.90;;;;;;5073837;28;20060;-75
2022/06/11 01:15:05;;;;;;;3.22;0.98;;;15.60;99.90;;;;;;5064841;28;20060;-75
2022/06/11 01:17:50;;;;;;;3.05;1.20;;;15.50;99.90;;;;;;4990166;28;20221;-75
2022/06/11 01:20:39;;;;;;;1.58;0.73;;;15.50;99.90;;;;;;5064329;28;20357;-75
2022/06/11 01:23:26;;;;;;;1.88;0.70;;;15.50;99.90;;;;;;5068414;28;20037;-75
2022/06/11 01:26:17;;;;;;;2.00;1.00;;;15.40;99.90;;;;;;5063253;28;20045;-75
2022/06/11 01:29:05;;;;;;;2.35;0.90;;;15.40;99.90;;;;;;5063107;28;20051;-76
2022/06/11 01:31:42;;;;;;;2.83;1.00;;;15.40;99.90;;;;;;5079693;28;20059;-75
2022/06/11 01:34:22;;;;;;;1.88;1.00;;;15.30;99.90;;;;;;5069217;28;20030;-75
2022/06/11 01:36:52;;;;;;;2.17;0.80;;;15.30;99.90;;;;;;5067951;28;20036;-75
2022/06/11 01:39:21;;;;;;;3.42;1.00;;;15.20;99.90;;;;;;5077220;28;20033;-76
2022/06/11 01:41:53;;;;;;;4.22;1.00;;;15.30;99.90;;;;;;5067055;28;20098;-76
2022/06/11 01:44:30;;;;;;;4.32;0.98;;;15.30;99.90;;;;;;5067832;28;20122;-75
2022/06/11 01:46:57;;;;;;;2.22;1.02;;;15.20;99.90;;;;;;5079464;28;20054;-75
2022/06/11 01:49:23;;;;;;;2.20;0.70;;;15.20;99.90;;;;;;5053555;28;20495;-76
2022/06/11 01:51:48;;;;;;;;;;;15.10;99.90;;;;;;5071936;28;20068;-76
2022/06/11 01:54:38;;;;;;;1.00;0.60;;;15.20;99.90;;;;;;5068963;28;20021;-76
2022/06/11 01:57:43;;;;;;;1.35;0.60;;;15.10;99.90;;;;;;5063179;28;20033;-76
2022/06/11 02:00:21;;;;;;;1.17;0.40;;;15.00;99.90;;;;;;5065775;28;20039;-75
2022/06/11 02:03:02;;;;;;;0.95;0.43;;;15.00;99.90;;;;;;5067785;28;20040;-75
2022/06/11 02:05:40;;;;;;;1.15;0.50;;;14.90;99.90;;;;;;5076577;28;20111;-75
2022/06/11 02:08:56;;;;;;;0.43;0.32;;;14.90;99.90;;;;;;5065870;28;20076;-76
2022/06/11 02:11:43;;;;;;;1.90;0.55;;;14.80;99.90;;;;;;5016040;28;20263;-76
2022/06/11 02:14:32;;;;;;;2.70;0.63;;;14.80;99.90;;;;;;5070084;28;20041;-75
2022/06/11 02:17:40;;;;;;;1.10;0.52;;;14.70;99.90;;;;;;5073461;28;20033;-75
2022/06/11 02:20:10;;;;;;;1.27;0.60;;;14.60;99.90;;;;;;5014197;28;20040;-75
2022/06/11 02:22:47;;;;;;;2.90;0.70;;;14.70;99.90;;;;;;5014623;28;20065;-75
2022/06/11 02:25:27;;;;;;;1.90;0.80;;;14.60;99.90;;;;;;5040403;28;20075;-75
2022/06/11 02:27:56;;;;;;;1.42;0.70;;;14.60;99.90;;;;;;5081645;28;20036;-76
2022/06/11 02:30:26;;;;;;;1.30;0.50;;;14.60;99.90;;;;;;5068190;28;20110;-76
2022/06/11 02:32:52;;;;;;;0.60;0.30;;;14.60;99.90;;;;;;5069478;28;20047;-76
2022/06/11 02:35:27;;;;;;;;;;;14.50;99.90;;;;;;5054784;28;20072;-75
2022/06/11 02:37:53;;;;;;;2.03;0.60;;;14.50;99.90;;;;;;5050592;28;20000;-76
2022/06/11 02:40:27;;;;;;;1.38;0.40;;;14.40;99.90;;;;;;5069757;28;20048;-76
2022/06/11 02:42:53;;;;;;;0.82;0.43;;;14.40;99.90;;;;;;5070402;28;20662;-76
2022/06/11 02:45:19;;;;;;;;;;;14.30;99.90;;;;;;5070252;28;20028;-75
2022/06/11 02:47:47;;;;;;;1.42;0.77;;;14.30;99.90;;;;;;5069234;28;20014;-76
2022/06/11 02:50:22;;;;;;;2.95;0.88;;;14.40;99.90;;;;;;5066886;28;20099;-76
2022/06/11 02:52:47;;;;;;;1.63;0.73;;;14.30;99.90;;;;;;5073947;28;20044;-76
2022/06/11 02:55:13;;;;;;;2.60;0.90;;;14.40;99.90;;;;;;5054489;28;20044;-76
2022/06/11 02:57:39;;;;;;;2.30;0.70;;;14.30;99.90;;;;;;5055850;28;20391;-76
2022/06/11 03:00:09;;;;;;;1.42;0.70;;;14.30;99.90;;;;;;5070372;28;20117;-76
2022/06/11 03:02:35;;;;;;;1.25;0.55;;;14.30;99.90;;;;;;5074190;28;20102;-76
2022/06/11 03:05:02;;;;;;;;;;;14.20;99.90;;;;;;5071812;28;20044;-76
2022/06/11 03:07:27;;;;;;;2.22;0.68;;;14.30;99.90;;;;;;5071685;28;20275;-76
2022/06/11 03:09:53;;;;;;;1.10;0.50;;;14.10;99.90;;;;;;5067886;28;20052;-76
2022/06/11 03:12:19;;;;;;;1.27;0.50;;;14.10;99.90;;;;;;5065622;28;20055;-76
2022/06/11 03:14:45;;;;;;;1.90;0.50;;;14.10;99.90;;;;;;5054650;28;20475;-76
2022/06/11 03:17:12;;;;;;;;;;;14.10;99.90;;;;;;5069423;28;20045;-76
2022/06/11 03:19:38;;;;;;;1.42;0.50;;;14.10;99.90;;;;;;5063918;28;19980;-76
2022/06/11 03:22:04;;;;;;;;;;;14.00;99.90;;;;;;5062082;28;20044;-76
2022/06/11 03:24:29;;;;;;;0.82;0.55;;;13.90;99.90;;;;;;5079235;28;20404;-76
2022/06/11 03:26:56;;;;;;;1.50;0.60;;;14.00;99.90;;;;;;5059119;28;20064;-76
2022/06/11 03:29:22;;;;;;;;;;;13.90;99.90;;;;;;5069361;28;20356;-76
2022/06/11 03:31:48;;;;;;;1.17;0.70;;;13.90;99.90;;;;;;5069560;28;19920;-76
2022/06/11 03:34:15;;;;;;;1.33;0.50;;;13.80;99.90;;;;;;5068678;28;20174;-76
2022/06/11 03:36:42;;;;;;;1.00;0.50;;;13.90;99.90;;;;;;5071185;28;20029;-76
2022/06/11 03:39:09;;;;;;;0.80;0.40;;;13.80;99.90;;;;;;5067606;28;20108;-76
2022/06/11 03:41:35;;;;;;;1.70;0.52;;;13.90;99.90;;;;;;5063120;28;20044;-76
2022/06/11 03:44:00;;;;;;;;;;;13.80;99.90;;;;;;5065874;28;20041;-75
2022/06/11 03:46:28;;;;;;;0.98;0.57;;;13.90;99.90;;;;;;5062070;28;19921;-76
2022/06/11 03:48:54;;;;;;;1.15;0.40;;;13.80;99.90;;;;;;5055252;28;20167;-76
2022/06/11 03:51:20;;;;;;;1.55;0.50;;;13.80;99.90;;;;;;5068758;28;20531;-76
2022/06/11 03:53:46;;;;;;;1.50;0.55;;;13.80;99.90;;;;;;5075932;28;20130;-76
2022/06/11 03:56:13;;;;;;;0.98;0.55;;;13.80;99.90;;;;;;5066639;28;20144;-76
2022/06/11 03:58:40;;;;;;;0.60;0.40;;;13.90;99.90;;;;;;5082963;28;20032;-76
2022/06/11 04:01:16;;;;;;;1.25;0.70;;;13.80;99.90;;;;;;5055116;28;20341;-77
2022/06/11 04:04:04;;;;;;;1.90;0.60;;;13.80;99.90;;;;;;5055063;28;20136;-76
2022/06/11 04:06:40;;;;;;;2.90;0.75;;;13.90;99.90;;;;;;5048683;28;20046;-75
2022/06/11 04:09:10;;;;;;;2.38;0.80;;;13.90;99.90;;;;;;5066276;28;20059;-76
2022/06/11 04:11:36;;;;;;;3.53;1.13;;;13.80;99.90;;;;;;5066516;28;20582;-75
2022/06/11 04:14:02;;;;;;;3.60;1.77;;;13.90;99.90;;;;;;5067550;28;20943;-76
2022/06/11 04:16:36;;;;;;;3.03;1.08;;;14.00;99.90;;;;;;5086630;28;20055;-76
2022/06/11 04:19:04;;;;;;;2.85;1.00;;;14.00;99.90;;;;;;5051249;28;20518;-76
2022/06/11 04:21:32;;;;;;;4.45;1.17;;;14.00;99.90;;;;;;5068925;28;20040;-76
2022/06/11 04:24:00;;;;;;;5.03;1.50;;;14.10;99.90;;;;;;5070885;28;20135;-75
2022/06/11 04:26:31;;;;;;;6.30;1.75;;;14.10;99.90;;;;;;5077264;28;20068;-76
2022/06/11 04:28:59;;;;;;;7.30;1.67;;;14.20;99.90;;;;;;5053403;28;20067;-75
2022/06/11 04:31:25;;;;;;;4.05;1.38;;;14.20;99.90;;;;;;5077132;28;20484;-75
2022/06/11 04:33:51;;;;;;;4.55;1.35;;;14.30;99.90;;;;;;5066327;28;20033;-75
2022/06/11 04:36:20;;;;;;;2.72;1.40;;;14.30;99.90;;;;;;5067839;28;20050;-75
2022/06/11 04:38:46;;;;;;;3.20;1.30;;;14.40;99.90;;;;;;5056223;28;20036;-75
2022/06/11 04:41:12;;;;;;;3.08;1.20;;;14.50;99.90;;;;;;5048694;28;20448;-74
2022/06/11 04:43:38;;;;;;;3.45;1.42;;;14.50;99.90;;;;;;5067121;28;20059;-75
2022/06/11 04:46:04;;;;;;;5.85;1.60;;;14.50;99.90;;;;;;5059414;28;20040;-74
2022/06/11 04:48:30;;;;;;;7.35;1.98;;;14.60;99.90;;;;;;5071099;28;20043;-76
2022/06/11 04:50:56;;;;;;;5.25;1.40;;;14.70;99.90;;;;;;5061247;28;20490;-76
2022/06/11 04:53:22;;;;;;;;;;;14.70;99.90;;;;;;5079012;28;20048;-70
2022/06/11 04:55:48;;;;;;;4.97;1.65;;;14.70;99.90;;;;;;5066344;28;19917;-75
2022/06/11 04:58:14;;;;;;;5.38;1.63;;;14.80;99.90;;;;;;5078965;28;20049;-75
2022/06/11 05:00:40;;;;;;;6.50;1.65;;;14.90;99.90;;;;;;5039713;28;20056;-75
2022/06/11 05:03:06;;;;;;;6.60;1.80;;;14.80;99.90;;;;;;5072350;28;20105;-76
2022/06/11 05:05:32;;;;;;;6.60;2.22;;;14.90;99.90;;;;;;5053508;28;20040;-75
2022/06/11 05:07:59;;;;;;;9.00;2.85;;;14.90;99.90;;;;;;5053540;28;20131;-75
2022/06/11 05:10:27;;;;;;;8.15;2.50;;;15.00;99.90;;;;;;5051827;28;20116;-75
2022/06/11 05:12:53;;;;;;;8.82;2.13;;;15.00;99.90;;;;;;5053109;28;20056;-75
2022/06/11 05:15:20;;;;;;;9.15;2.42;;;15.20;99.90;;;;;;5043511;28;20400;-76
2022/06/11 05:17:45;;;;;;;6.95;2.10;;;15.10;99.90;;;;;;5051333;28;20045;-75
2022/06/11 05:20:12;;;;;;;12.43;2.85;;;15.20;99.90;;;;;;5056025;28;20503;-75
2022/06/11 05:22:38;;;;;;;9.98;2.50;;;15.20;99.90;;;;;;5055882;28;20041;-76
2022/06/11 05:25:05;;;;;;;;;;;15.30;99.90;;;;;;5063959;28;20039;-77
2022/06/11 05:27:31;;;;;;;9.63;2.50;;;15.40;99.90;;;;;;5074614;28;19930;-77
2022/06/11 05:30:06;;;;;;;;;;;15.40;99.90;;;;;;5079468;28;20527;-75
2022/06/11 05:32:36;;;;;;;11.57;2.83;;;15.50;99.90;;;;;;5078670;28;20016;-75
2022/06/11 05:35:05;;;;;;;9.57;2.55;;;15.40;99.90;;;;;;5071785;28;20096;-75
2022/06/11 05:37:30;;;;;;;9.52;2.38;;;15.50;99.90;;;;;;5068694;28;20133;-75
2022/06/11 05:39:56;;;;;;;7.90;2.25;;;15.60;99.90;;;;;;5050419;28;20075;-75
2022/06/11 05:42:24;;;;;;;10.82;2.63;;;15.60;99.90;;;;;;5066423;28;20131;-75
2022/06/11 05:44:50;;;;;;;9.88;2.67;;;15.60;99.90;;;;;;5068022;28;20593;-75
2022/06/11 05:47:18;;;;;;;;;;;15.60;99.90;;;;;;5069114;28;20052;-75
2022/06/11 05:49:48;;;;;;;10.02;2.78;;;15.70;99.90;;;;;;5061163;28;20303;-75
2022/06/11 05:52:17;;;;;;;7.78;2.53;;;15.80;99.90;;;;;;5088791;28;20051;-75
2022/06/11 05:54:45;;;;;;;9.73;2.72;;;15.80;99.90;;;;;;5072250;28;20052;-74
2022/06/11 05:57:17;;;;;;;8.82;2.33;;;15.80;99.90;;;;;;5072590;28;20513;-74
2022/06/11 05:59:48;;;;;;;11.30;2.90;;;15.80;99.90;;;;;;5072442;28;20101;-75
2022/06/11 06:02:17;;;;;;;9.43;2.78;;;15.90;99.90;;;;;;5055832;28;20052;-75
2022/06/11 06:04:43;;;;;;;9.85;2.88;;;16.00;99.90;;;;;;5074662;28;20044;-74
2022/06/11 06:07:09;;;;;;;11.50;2.83;;;16.10;99.90;;;;;;5069156;28;20059;-75
2022/06/11 06:09:35;;;;;;;12.18;3.30;;;16.20;99.90;;;;;;5084559;28;20090;-75
2022/06/11 06:12:02;;;;;;;15.27;3.17;;;16.20;99.90;;;;;;5076855;28;20066;-75
2022/06/11 06:14:27;;;;;;;9.88;2.65;;;16.30;99.90;;;;;;5087244;28;20044;-76
2022/06/11 06:16:54;;;;;;;10.07;2.83;;;16.40;99.90;;;;;;5058551;28;20040;-75
2022/06/11 06:19:19;;;;;;;;;;;16.50;99.90;;;;;;5081523;28;20040;-75
2022/06/11 06:21:45;;;;;;;16.65;3.92;;;16.70;99.90;;;;;;5060735;28;19969;-75
2022/06/11 06:24:11;;;;;;;;;;;16.90;99.90;;;;;;5078142;28;20044;-75
2022/06/11 06:26:38;;;;;;;17.70;4.10;;;17.00;99.90;;;;;;5074277;28;19999;-75
2022/06/11 06:29:04;;;;;;;11.45;3.10;;;16.90;99.90;;;;;;5073942;28;20136;-75
2022/06/11 06:31:30;;;;;;;14.65;3.92;;;16.90;99.90;;;;;;5071956;28;20036;-74
2022/06/11 06:33:58;;;;;;;16.52;4.00;;;16.90;99.90;;;;;;5074721;28;20040;-76
2022/06/11 06:36:25;;;;;;;15.23;3.85;;;17.00;99.90;;;;;;5072124;28;20491;-75
2022/06/11 06:38:52;;;;;;;14.35;3.10;;;17.00;99.90;;;;;;5055100;28;20072;-75
2022/06/11 06:41:18;;;;;;;10.63;2.75;;;17.00;99.90;;;;;;5070811;28;20155;-75
2022/06/11 06:43:45;;;;;;;11.20;3.40;;;17.10;99.90;;;;;;5073045;28;20503;-75
2022/06/11 06:46:11;;;;;;;13.52;3.38;;;17.10;99.90;;;;;;5073179;28;20072;-76
2022/06/11 06:48:37;;;;;;;17.17;4.07;;;17.10;99.90;;;;;;5082651;28;20086;-75
2022/06/11 06:51:04;;;;;;;14.70;3.38;;;17.10;99.90;;;;;;5074459;28;20573;-75
2022/06/11 06:53:30;;;;;;;16.17;3.72;;;17.30;99.90;;;;;;5053694;28;20537;-75
2022/06/11 06:55:56;;;;;;;14.07;3.50;;;17.30;99.90;;;;;;5054792;28;20036;-76
2022/06/11 06:58:23;;;;;;;16.88;4.20;;;17.40;99.90;;;;;;5071399;28;20052;-75
2022/06/11 07:00:50;;;;;;;11.40;3.83;;;17.40;99.90;;;;;;5080119;28;20097;-75
2022/06/11 07:03:16;;;;;;;11.35;3.45;;;17.50;99.90;;;;;;5070621;28;20036;-76
2022/06/11 07:05:43;;;;;;;10.23;3.60;;;17.60;99.90;;;;;;5082842;28;20138;-76
2022/06/11 07:08:10;;;;;;;13.90;3.40;;;17.70;99.90;;;;;;5073291;28;20040;-75
2022/06/11 07:10:35;;;;;;;11.80;3.42;;;17.70;99.90;;;;;;5070859;28;20510;-75
2022/06/11 07:13:01;;;;;;;11.77;3.17;;;17.80;99.90;;;;;;5071213;28;20131;-74
2022/06/11 07:15:28;;;;;;;17.25;4.20;;;17.90;99.90;;;;;;5069942;28;20043;-75
2022/06/11 07:18:07;;;;;;;20.95;4.13;;;17.90;99.90;;;;;;5087559;28;20052;-76
2022/06/11 07:20:35;;;;;;;19.50;4.20;;;18.00;99.90;;;;;;5057892;28;20044;-75
2022/06/11 07:23:14;;;;;;;15.20;4.07;;;17.80;99.90;;;;;;5087893;28;20417;-75
2022/06/11 07:25:41;;;;;;;15.57;3.80;;;18.10;99.90;;;;;;5070543;28;20093;-75
2022/06/11 07:28:15;;;;;;;14.05;3.72;;;18.00;99.90;;;;;;5052041;28;20041;-76
2022/06/11 07:30:42;;;;;;;10.90;3.17;;;18.20;99.90;;;;;;5067205;28;20032;-75
2022/06/11 07:33:11;;;;;;;13.20;3.42;;;18.30;99.90;;;;;;5070144;28;20503;-76
2022/06/11 07:35:38;;;;;;;11.77;3.22;;;18.40;99.90;;;;;;5072588;28;20117;-75
2022/06/11 07:38:08;;;;;;;14.50;3.70;;;18.60;99.90;;;;;;5083710;28;20090;-75
2022/06/11 07:40:34;;;;;;;12.00;3.28;;;18.50;99.90;;;;;;5066549;28;20036;-75
2022/06/11 07:43:00;;;;;;;;;;;18.60;99.90;;;;;;5052960;28;20044;-74
2022/06/11 07:45:26;;;;;;;15.10;4.00;;;18.80;99.90;;;;;;5070805;28;19969;-75
2022/06/11 07:47:54;;;;;;;14.82;3.60;;;18.80;99.90;;;;;;5089199;28;20471;-75
2022/06/11 07:50:32;;;;;;;14.32;3.42;;;18.70;99.90;;;;;;5076799;28;20093;-75
2022/06/11 07:52:59;;;;;;;15.15;3.90;;;18.90;99.90;;;;;;5055759;28;20128;-75
2022/06/11 07:55:27;;;;;;;13.60;3.65;;;19.00;99.90;;;;;;5068940;28;20044;-75
2022/06/11 07:57:53;;;;;;;13.25;2.92;;;19.10;99.90;;;;;;5087380;28;20452;-76
2022/06/11 08:00:24;;;;;;;16.05;3.05;;;19.20;99.90;;;;;;5069887;28;20040;-75
2022/06/11 08:02:50;;;;;;;13.95;3.28;;;19.30;99.90;;;;;;5087573;28;20048;-76
2022/06/11 08:05:15;;;;;;;;;;;19.40;99.90;;;;;;5082619;28;20040;-75
2022/06/11 08:07:41;;;;;;;13.57;3.67;;;19.50;99.90;;;;;;5084265;28;19922;-76
2022/06/11 08:10:07;;;;;;;;;;;19.60;99.90;;;;;;5084782;28;20040;-76
2022/06/11 08:12:33;;;;;;;14.75;3.70;;;19.80;99.90;;;;;;5080917;28;19923;-76
2022/06/11 08:14:58;;;;;;;;;;;20.10;99.90;;;;;;5072239;28;20043;-75
2022/06/11 08:17:26;;;;;;;13.13;3.22;;;20.00;99.90;;;;;;5052073;28;19920;-76
2022/06/11 08:19:52;;;;;;;14.75;3.13;;;20.00;99.90;;;;;;5069145;28;20037;-76
2022/06/11 08:22:18;;;;;;;9.88;2.83;;;20.00;99.90;;;;;;5075801;28;20086;-74
2022/06/11 08:24:44;;;;;;;9.48;2.70;;;20.10;99.90;;;;;;5075922;28;20056;-76
2022/06/11 08:27:09;;;;;;;9.77;2.80;;;20.40;99.90;;;;;;5058520;28;20609;-74
2022/06/11 08:29:35;;;;;;;12.27;2.97;;;20.40;99.90;;;;;;5064317;28;20040;-73
2022/06/11 08:32:01;;;;;;;17.85;3.75;;;20.40;99.90;;;;;;5051384;28;20056;-73
2022/06/11 08:34:27;;;;;;;12.80;3.13;;;20.20;99.90;;;;;;5069416;28;20048;-73
2022/06/11 08:36:53;;;;;;;10.52;2.83;;;20.30;99.90;;;;;;5068433;28;20049;-74
2022/06/11 08:39:18;;;;;;;13.43;3.03;;;20.60;99.90;;;;;;5069126;28;20032;-73
2022/06/11 08:41:44;;;;;;;9.05;2.92;;;20.50;99.90;;;;;;5069630;28;20051;-73
2022/06/11 08:44:13;;;;;;;10.88;3.15;;;20.30;99.90;;;;;;5069253;28;20044;-74
2022/06/11 08:46:42;;;;;;;7.90;2.20;;;20.30;99.90;;;;;;5078437;28;20071;-74
2022/06/11 08:49:20;;;;;;;8.05;2.60;;;20.60;99.90;;;;;;5073144;28;20111;-73
2022/06/11 08:51:55;;;;;;;13.10;3.13;;;20.60;99.90;;;;;;5068640;28;20561;-74
2022/06/11 08:54:29;;;;;;;11.40;2.88;;;20.60;99.90;;;;;;5074391;28;20037;-74
2022/06/11 08:57:09;;;;;;;10.13;2.92;;;20.70;99.90;;;;;;5078593;28;20036;-73
2022/06/11 08:59:55;;;;;;;13.50;3.17;;;20.70;99.90;;;;;;5071662;28;20036;-73
2022/06/11 09:02:45;;;;;;;8.68;2.35;;;20.90;99.90;;;;;;5069224;28;20409;-74
2022/06/11 09:05:11;;;;;;;11.52;3.08;;;21.00;99.90;;;;;;5063689;28;20036;-75
2022/06/11 09:08:07;;;;;;;10.23;3.00;;;21.10;99.90;;;;;;5069518;28;20329;-74
2022/06/11 09:11:18;;;;;;;12.05;2.95;;;21.00;99.90;;;;;;5066015;28;20087;-73
2022/06/11 09:13:58;;;;;;;7.88;2.60;;;21.20;99.90;;;;;;5040406;28;20521;-73
2022/06/11 09:16:55;;;;;;;9.15;2.75;;;21.50;99.90;;;;;;5079533;28;20043;-74
2022/06/11 09:19:45;;;;;;;9.10;2.53;;;21.50;99.90;;;;;;5073180;28;20040;-74
2022/06/11 09:22:44;;;;;;;9.07;2.50;;;21.20;99.90;;;;;;5056726;28;20094;-76
2022/06/11 09:25:47;;;;;;;6.72;2.10;;;21.30;99.90;;;;;;5068884;28;20037;-75
2022/06/11 09:28:28;;;;;;;10.73;2.67;;;21.60;99.30;;;;;;5079144;28;20879;-75
2022/06/11 09:31:13;;;;;;;9.43;2.50;;;21.60;98.80;;;;;;5078031;28;20044;-76
2022/06/11 09:33:51;;;;;;;8.35;2.20;;;21.70;99.60;;;;;;5078612;28;20044;-76
2022/06/11 09:36:54;;;;;;;8.18;2.65;;;21.70;97.80;;;;;;5067662;28;20498;-75
2022/06/11 09:39:46;;;;;;;8.32;2.40;;;21.60;97.60;;;;;;5007501;28;20044;-75
2022/06/11 09:42:15;;;;;;;10.02;2.60;;;21.90;97.90;;;;;;5080857;28;20054;-75
2022/06/11 09:44:52;;;;;;;6.57;2.20;;;22.00;99.20;;;;;;5070810;28;20076;-75
2022/06/11 09:47:53;;;;;;;10.63;2.35;;;22.20;96.30;;;;;;5080462;28;20044;-75
2022/06/11 09:51:02;;;;;;;10.02;2.72;;;22.00;94.90;;;;;;5092941;28;20101;-75
2022/06/11 09:53:47;;;;;;;6.38;1.85;;;22.20;94.80;;;;;;4970745;28;20096;-75
2022/06/11 09:56:31;;;;;;;9.05;2.30;;;22.60;96.40;;;;;;5068196;28;20155;-75
2022/06/11 09:59:08;;;;;;;7.78;2.30;;;21.90;93.20;;;;;;5081754;28;20040;-75
2022/06/11 10:01:53;;;;;;;7.22;2.05;;;21.50;93.80;;;;;;5072735;28;20044;-74
2022/06/11 10:04:26;;;;;;;7.88;2.33;;;21.40;93.10;;;;;;5086811;28;20056;-75
2022/06/11 10:06:59;;;;;;;5.88;2.10;;;21.40;93.50;;;;;;5088995;28;20422;-75
2022/06/11 10:09:35;;;;;;;6.53;2.03;;;21.00;94.00;;;;;;5072028;28;20055;-75
2022/06/11 10:12:27;;;;;;;6.90;2.10;;;21.10;95.80;;;;;;5067479;28;20410;-75
2022/06/11 10:15:02;;;;;;;9.50;2.40;;;21.20;94.20;;;;;;5072171;28;20081;-75
2022/06/11 10:17:39;;;;;;;8.30;2.53;;;20.60;94.30;;;;;;5070360;28;20048;-75
2022/06/11 10:20:18;;;;;;;9.73;2.55;;;20.40;94.50;;;;;;5090498;28;20040;-74
2022/06/11 10:23:12;;;;;;;6.03;1.80;;;20.50;96.40;;;;;;5063242;28;20044;-75
2022/06/11 10:25:56;;;;;;;9.00;2.35;;;20.50;95.70;;;;;;5079460;28;20040;-75
2022/06/11 10:28:31;;;;;;;7.72;2.38;;;20.40;95.60;;;;;;5079063;28;20408;-75
2022/06/11 10:31:07;;;;;;;7.22;2.20;;;20.80;96.70;;;;;;5071251;28;20048;-75
2022/06/11 10:33:55;;;;;;;8.95;2.20;;;20.90;96.50;;;;;;5071648;28;20151;-75
2022/06/11 10:36:45;;;;;;;5.57;1.65;;;21.10;96.00;;;;;;5073922;28;20518;-75
2022/06/11 10:39:29;;;;;;;8.75;2.30;;;21.70;97.40;;;;;;5029057;28;20048;-75
2022/06/11 10:42:15;;;;;;;7.13;2.00;;;21.70;94.90;;;;;;5071635;28;20080;-75
2022/06/11 10:44:44;;;;;;;12.07;2.72;;;22.20;93.60;;;;;;5054462;28;20048;-75
2022/06/11 10:47:34;;;;;;;9.50;2.10;;;22.20;92.60;;;;;;5064157;28;20047;-76
2022/06/11 10:50:09;;;;;;;8.75;2.40;;;22.30;92.60;;;;;;5058973;28;20048;-75
2022/06/11 10:52:53;;;;;;;6.57;2.13;;;22.40;92.10;;;;;;5057068;28;20508;-75
2022/06/11 10:55:35;;;;;;;10.10;2.60;;;22.50;93.00;;;;;;5071163;28;20037;-75
2022/06/11 10:58:29;;;;;;;8.77;2.33;;;22.50;91.60;;;;;;5087829;28;20491;-75
2022/06/11 11:01:10;;;;;;;5.40;1.88;;;22.50;92.50;;;;;;5044701;28;20048;-75
2022/06/11 11:03:50;;;;;;;5.47;1.70;;;22.50;92.10;;;;;;5070036;28;20112;-75
2022/06/11 11:06:30;;;;;;;7.03;2.35;;;22.60;92.00;;;;;;5054261;28;20052;-76
2022/06/11 11:08:58;;;;;;;9.27;2.20;;;21.90;92.30;;;;;;5067678;28;20344;-75
2022/06/11 11:11:27;;;;;;;8.93;2.38;;;21.80;93.70;;;;;;5084965;28;20086;-75
2022/06/11 11:14:14;;;;;;;11.32;2.45;;;22.10;93.00;;;;;;5086192;28;20032;-75
2022/06/11 11:16:46;;;;;;;6.97;2.10;;;22.20;92.60;;;;;;5088480;28;20040;-76
2022/06/11 11:19:20;;;;;;;6.18;1.83;;;22.20;92.50;;;;;;5080208;28;20076;-75
2022/06/11 11:22:00;;;;;;;6.20;1.85;;;22.50;93.30;;;;;;5087499;28;20540;-74
2022/06/11 11:24:36;;;;;;;8.05;2.35;;;23.00;91.80;;;;;;5075569;28;20119;-75
2022/06/11 11:27:14;;;;;;;9.50;2.20;;;22.70;91.60;;;;;;5089025;28;20081;-75
2022/06/11 11:29:52;;;;;;;9.50;2.17;;;22.30;91.50;;;;;;5071027;28;20083;-75
2022/06/11 11:32:33;;;;;;;7.80;1.98;;;22.40;92.00;;;;;;5072851;28;20393;-75
2022/06/11 11:35:16;;;;;;;7.43;2.08;;;22.80;91.70;;;;;;5077688;28;20132;-75
2022/06/11 11:37:44;;;;;;;8.18;2.10;;;23.30;91.60;;;;;;5067569;28;20078;-75
2022/06/11 11:40:25;;;;;;;5.63;1.85;;;23.40;91.60;;;;;;5081718;28;20070;-74
2022/06/11 11:42:57;;;;;;;7.45;1.98;;;23.40;91.10;;;;;;5065298;28;20044;-75
2022/06/11 11:45:24;;;;;;;7.93;2.00;;;23.00;90.70;;;;;;5064105;28;20044;-75
2022/06/11 11:47:53;;;;;;;7.45;2.05;;;22.70;91.00;;;;;;5070479;28;20049;-75
2022/06/11 11:50:32;;;;;;;7.97;2.30;;;23.00;91.60;;;;;;5052615;28;20151;-75
2022/06/11 11:53:10;;;;;;;6.38;1.83;;;23.50;91.80;;;;;;5074083;28;20534;-76
2022/06/11 11:55:42;;;;;;;6.47;1.88;;;23.70;91.40;;;;;;5073210;28;20123;-75
2022/06/11 11:58:17;;;;;;;7.88;2.33;;;23.50;88.30;;;;;;5085643;28;20054;-76
2022/06/11 12:00:53;;;;;;;4.63;1.60;;;23.50;90.10;;;;;;5082036;28;20491;-76
2022/06/11 12:03:29;;;;;;;7.45;2.10;;;23.30;90.80;;;;;;5069647;28;20037;-75
2022/06/11 12:05:57;;;;;;;6.82;2.00;;;23.40;90.00;;;;;;5067028;28;20349;-75
2022/06/11 12:08:30;;;;;;;8.40;2.22;;;23.30;88.40;;;;;;5067401;28;20051;-77
2022/06/11 12:11:00;;;;;;;6.82;2.15;;;23.20;89.50;;;;;;5084723;28;20606;-76
2022/06/11 12:13:45;;;;;;;7.07;2.05;;;22.80;88.60;;;;;;5086149;28;20060;-75
2022/06/11 12:16:37;;;;;;;7.15;1.83;;;22.50;89.90;;;;;;5086760;28;20051;-76
2022/06/11 12:19:11;;;;;;;5.50;1.80;;;22.20;87.30;;;;;;5069642;28;20476;-75
2022/06/11 12:21:42;;;;;;;6.03;1.60;;;22.10;90.60;;;;;;5068792;28;20036;-75
2022/06/11 12:24:24;;;;;;;6.55;1.85;;;22.70;91.00;;;;;;5069430;28;20059;-76
2022/06/11 12:26:56;;;;;;;5.57;1.50;;;22.90;90.00;;;;;;5068906;28;20099;-76
2022/06/11 12:29:29;;;;;;;5.55;1.52;;;23.00;90.70;;;;;;5057825;28;20051;-75
2022/06/11 12:31:59;;;;;;;6.50;1.60;;;23.00;87.70;;;;;;5083119;28;20411;-75
2022/06/11 12:34:30;;;;;;;6.45;1.58;;;23.20;87.50;;;;;;5039326;28;20115;-75
2022/06/11 12:37:10;;;;;;;5.57;1.85;;;23.20;86.90;;;;;;5082444;28;20040;-75
2022/06/11 12:39:53;;;;;;;4.30;1.50;;;23.00;87.50;;;;;;5083127;28;20115;-75
2022/06/11 12:43:10;;;;;;;7.07;2.00;;;23.10;88.30;;;;;;5052884;28;20488;-75
2022/06/11 12:45:52;;;;;;;5.95;1.80;;;23.10;89.90;;;;;;5011057;28;20449;-76
2022/06/11 12:48:30;;;;;;;6.07;1.52;;;22.70;87.70;;;;;;5067164;28;20059;-75
2022/06/11 12:51:04;;;;;;;6.15;1.60;;;22.30;86.80;;;;;;5069506;28;20155;-75
2022/06/11 12:53:44;;;;;;;5.68;1.35;;;22.60;90.40;;;;;;5058653;28;20047;-76
2022/06/11 12:56:25;;;;;;;5.78;1.58;;;22.70;89.40;;;;;;5068282;28;20036;-75
2022/06/11 12:59:05;;;;;;;6.40;1.42;;;23.00;89.80;;;;;;5073039;28;20385;-75
2022/06/11 13:01:41;;;;;;;5.97;1.90;;;22.90;87.50;;;;;;5066286;28;20117;-75
2022/06/11 13:04:24;;;;;;;8.27;2.80;;;22.90;88.90;;;;;;5069257;28;20406;-75
2022/06/11 13:07:24;;;;;;;4.85;1.75;;;22.80;88.90;;;;;;5036744;28;20044;-76
2022/06/11 13:10:02;;;;;;;7.45;1.90;;;23.10;88.90;;;;;;5052542;28;20053;-76
2022/06/11 13:12:31;;;;;;;6.82;1.80;;;23.10;88.00;;;;;;5080366;28;20052;-75
2022/06/11 13:15:27;;;;;;;6.90;1.80;;;23.10;87.90;;;;;;5071401;28;20048;-75
2022/06/11 13:18:07;;;;;;;4.95;1.63;;;22.50;86.80;;;;;;5069590;28;20083;-75
2022/06/11 13:20:46;;;;;;;5.80;1.65;;;22.30;87.40;;;;;;5056809;28;20044;-75
2022/06/11 13:23:14;;;;;;;5.03;1.58;;;22.50;88.30;;;;;;5070607;28;20044;-75